Time;durP1;ratioP1;P1;durP2;ratioP2;P2;SDS_P1;SDS_P2;PMS_P1;PMS_P2;Temp;Humidity;BMP_temperature;BMP_pressure;BME280_temperature;BME280_humidity;BME280_pressure;Samples;Min_cycle;Max_cycle;Signal;HPM_P1;HPM_P2
2021/12/27 00:02:12;;;;;;;7.15;3.72;;;3.30;99.90;;;2.22;100.00;96412.41;4989009;28;20050;-69
2021/12/27 00:04:39;;;;;;;9.60;4.20;;;3.30;99.90;;;2.23;100.00;96416.66;4989880;28;20073;-70
2021/12/27 00:07:07;;;;;;;7.22;3.72;;;3.40;99.90;;;2.45;100.00;96420.28;4988619;28;20116;-69
2021/12/27 00:09:35;;;;;;;7.72;3.78;;;3.50;99.90;;;2.49;100.00;96413.34;4988286;28;20070;-69
2021/12/27 00:12:03;;;;;;;7.00;3.50;;;3.50;99.90;;;2.46;100.00;96401.47;4988651;28;20043;-69
2021/12/27 00:14:31;;;;;;;17.25;6.30;;;3.60;99.90;;;2.50;100.00;96405.59;4988104;28;20111;-69
2021/12/27 00:16:58;;;;;;;7.25;3.35;;;3.60;99.90;;;2.69;100.00;96403.34;4989938;28;20146;-69
2021/12/27 00:19:25;;;;;;;11.18;4.22;;;3.60;99.90;;;2.67;100.00;96405.13;4988049;28;20046;-69
2021/12/27 00:21:53;;;;;;;7.13;4.03;;;3.70;99.90;;;2.73;100.00;96404.09;4989259;28;20049;-69
2021/12/27 00:24:20;;;;;;;9.98;4.53;;;3.70;99.90;;;2.76;100.00;96403.16;4988421;28;20133;-69
2021/12/27 00:26:48;;;;;;;7.88;3.72;;;3.70;99.90;;;2.77;100.00;96394.59;4988456;28;20560;-69
2021/12/27 00:29:16;;;;;;;12.70;5.55;;;3.70;99.90;;;2.67;100.00;96394.88;4985150;28;20471;-69
2021/12/27 00:31:44;;;;;;;9.05;4.50;;;3.70;99.90;;;2.65;100.00;96390.69;4990247;28;20042;-70
2021/12/27 00:34:12;;;;;;;10.38;4.80;;;3.70;99.90;;;2.78;100.00;96391.13;4985810;28;20061;-69
2021/12/27 00:36:40;;;;;;;11.18;4.45;;;3.80;99.90;;;2.88;100.00;96393.38;4991421;28;20161;-69
2021/12/27 00:39:08;;;;;;;7.35;3.38;;;3.80;99.90;;;2.89;100.00;96391.63;4988048;28;20058;-70
2021/12/27 00:41:35;;;;;;;8.77;3.80;;;3.80;99.90;;;2.88;100.00;96393.38;4967567;28;20073;-69
2021/12/27 00:44:03;;;;;;;12.15;4.10;;;3.80;99.90;;;2.84;100.00;96388.38;4986075;28;20124;-69
2021/12/27 00:46:32;;;;;;;16.58;5.43;;;3.90;99.90;;;2.81;100.00;96384.19;4986034;28;20141;-69
2021/12/27 00:49:00;;;;;;;10.13;3.92;;;3.90;99.90;;;2.65;100.00;96391.50;4989747;28;20101;-69
2021/12/27 00:51:27;;;;;;;12.45;4.97;;;3.90;99.90;;;2.82;100.00;96390.16;4988384;28;20046;-69
2021/12/27 00:53:55;;;;;;;35.15;8.07;;;3.90;99.90;;;2.79;100.00;96385.13;4985526;28;20415;-70
2021/12/27 00:56:23;;;;;;;10.02;5.32;;;3.90;99.90;;;2.79;100.00;96391.09;4984549;28;20054;-70
2021/12/27 00:58:50;;;;;;;17.15;7.90;;;3.80;99.90;;;2.62;100.00;96377.94;4985334;28;20120;-70
2021/12/27 01:01:20;;;;;;;26.55;9.13;;;3.70;99.90;;;2.53;100.00;96379.06;4987488;28;20082;-70
2021/12/27 01:03:48;;;;;;;15.38;6.10;;;3.70;99.90;;;2.56;100.00;96389.22;4988544;28;20506;-69
2021/12/27 01:06:15;;;;;;;10.82;5.45;;;3.70;99.90;;;2.76;100.00;96377.53;4988355;28;20498;-70
2021/12/27 01:08:43;;;;;;;16.60;6.05;;;3.80;99.90;;;2.76;100.00;96380.09;4989098;28;20050;-70
2021/12/27 01:11:22;;;;;;;20.80;9.18;;;3.80;99.90;;;2.80;100.00;96384.25;4990956;28;20460;-70
2021/12/27 01:14:10;;;;;;;11.35;5.50;;;3.80;99.90;;;2.83;100.00;96385.00;4983463;28;20062;-70
2021/12/27 01:16:41;;;;;;;12.75;5.03;;;3.90;99.90;;;2.77;100.00;96380.03;4985517;28;20054;-70
2021/12/27 01:19:08;;;;;;;8.75;4.63;;;3.90;99.90;;;2.75;100.00;96375.84;4988162;28;20077;-70
2021/12/27 01:21:37;;;;;;;8.68;3.65;;;3.90;99.90;;;2.71;100.00;96378.53;4987379;28;20081;-70
2021/12/27 01:24:05;;;;;;;12.30;5.45;;;3.80;99.90;;;2.71;100.00;96381.09;4982408;28;20121;-70
2021/12/27 01:26:32;;;;;;;11.93;5.53;;;3.80;99.90;;;2.72;100.00;96382.75;4984208;28;20463;-70
2021/12/27 01:29:01;;;;;;;10.63;4.57;;;3.80;99.90;;;2.77;100.00;96376.66;4987145;28;20046;-70
2021/12/27 01:31:29;;;;;;;12.50;5.10;;;3.90;99.90;;;2.75;100.00;96365.59;4984200;28;20051;-70
2021/12/27 01:33:56;;;;;;;12.02;4.53;;;3.80;99.90;;;2.82;100.00;96375.59;4984177;28;20053;-70
2021/12/27 01:36:24;;;;;;;6.97;3.10;;;3.90;99.90;;;2.87;100.00;96371.19;4988577;28;20514;-69
2021/12/27 01:38:51;;;;;;;6.68;3.08;;;3.90;99.90;;;3.07;100.00;96377.41;4985377;28;20051;-70
2021/12/27 01:41:18;;;;;;;12.32;5.78;;;4.00;99.90;;;3.01;100.00;96373.31;4984413;28;20045;-70
2021/12/27 01:43:46;;;;;;;7.38;3.33;;;4.00;99.90;;;3.07;100.00;96373.09;4987407;28;20375;-70
2021/12/27 01:46:20;;;;;;;13.18;4.97;;;4.10;99.90;;;3.13;100.00;96380.63;4984992;28;20046;-69
2021/12/27 01:48:55;;;;;;;9.43;3.33;;;4.10;99.90;;;3.15;100.00;96375.44;4987136;28;20479;-70
2021/12/27 01:51:28;;;;;;;5.00;2.63;;;4.10;99.90;;;3.22;100.00;96366.66;4980136;28;20046;-72
2021/12/27 01:53:57;;;;;;;5.82;2.30;;;4.20;99.90;;;3.26;100.00;96368.25;4984494;28;20078;-70
2021/12/27 01:56:28;;;;;;;7.53;3.35;;;4.20;99.90;;;3.13;100.00;96366.97;4985954;28;20248;-70
2021/12/27 01:58:57;;;;;;;6.22;3.38;;;4.20;99.90;;;3.25;100.00;96360.59;4990291;28;20050;-70
2021/12/27 02:01:25;;;;;;;10.73;4.88;;;4.20;99.90;;;3.26;100.00;96364.81;4991002;28;20122;-70
2021/12/27 02:03:55;;;;;;;18.25;5.63;;;4.30;99.90;;;3.18;100.00;96362.50;4987711;28;20070;-70
2021/12/27 02:06:25;;;;;;;12.48;4.75;;;4.20;99.90;;;3.23;100.00;96358.06;4988213;28;20050;-70
2021/12/27 02:08:53;;;;;;;16.20;4.78;;;4.20;99.90;;;3.25;100.00;96355.47;4991476;28;20454;-70
2021/12/27 02:11:20;;;;;;;16.50;6.07;;;4.20;99.90;;;3.17;100.00;96360.84;4991067;28;20461;-70
2021/12/27 02:13:48;;;;;;;13.30;4.78;;;4.20;99.90;;;3.17;100.00;96358.28;4992866;28;20096;-70
2021/12/27 02:16:22;;;;;;;14.70;6.10;;;4.20;99.90;;;3.21;100.00;96357.28;4993159;28;20133;-69
2021/12/27 02:18:50;;;;;;;16.85;7.03;;;4.30;99.90;;;3.28;100.00;96361.31;4989696;28;20511;-70
2021/12/27 02:21:19;;;;;;;13.55;4.90;;;4.30;99.90;;;3.42;100.00;96355.75;4991907;28;20077;-70
2021/12/27 02:23:48;;;;;;;17.48;5.82;;;4.40;99.90;;;3.47;100.00;96361.56;4988434;28;20055;-70
2021/12/27 02:26:16;;;;;;;10.77;5.35;;;4.40;99.90;;;3.36;100.00;96361.06;4989119;28;20074;-70
2021/12/27 02:28:44;;;;;;;20.33;7.82;;;4.40;99.90;;;3.45;100.00;96360.75;4989666;28;20057;-70
2021/12/27 02:31:12;;;;;;;16.40;8.20;;;4.50;99.90;;;3.67;100.00;96354.88;4991000;28;20088;-70
2021/12/27 02:33:42;;;;;;;33.08;13.25;;;4.50;99.90;;;3.96;100.00;96351.28;4990560;28;20568;-70
2021/12/27 02:36:11;;;;;;;27.48;15.10;;;4.80;99.90;;;4.01;100.00;96351.94;4992489;28;20085;-69
2021/12/27 02:38:42;;;;;;;36.17;19.52;;;4.90;99.90;;;4.33;100.00;96340.53;4989884;28;20061;-70
2021/12/27 02:41:10;;;;;;;29.05;11.98;;;5.10;99.90;;;4.27;100.00;96351.00;4986118;28;20051;-70
2021/12/27 02:43:42;;;;;;;16.52;8.73;;;5.20;99.90;;;4.57;100.00;96343.88;4989825;28;20058;-70
2021/12/27 02:46:14;;;;;;;28.55;14.18;;;5.40;99.90;;;5.14;100.00;96354.47;4990430;28;20061;-69
2021/12/27 02:48:46;;;;;;;22.17;10.45;;;5.80;99.90;;;5.30;100.00;96351.28;4990030;28;20498;-70
2021/12/27 02:51:17;;;;;;;20.10;10.00;;;6.00;99.90;;;5.23;100.00;96345.56;4987207;28;20054;-70
2021/12/27 02:53:47;;;;;;;22.10;11.27;;;6.20;99.90;;;5.34;100.00;96345.97;4986115;28;20532;-70
2021/12/27 02:56:15;;;;;;;15.73;8.68;;;6.30;99.90;;;5.48;100.00;96344.56;4988429;28;20054;-69
2021/12/27 02:58:46;;;;;;;29.45;12.52;;;6.30;99.90;;;5.58;100.00;96346.66;4991196;28;20058;-70
2021/12/27 03:01:21;;;;;;;22.58;11.80;;;6.50;99.90;;;5.63;100.00;96344.75;4990980;28;20108;-70
2021/12/27 03:03:49;;;;;;;16.23;9.65;;;6.60;99.90;;;5.64;100.00;96353.28;4985130;28;20050;-70
2021/12/27 03:06:19;;;;;;;20.98;9.43;;;;;;;5.73;100.00;96344.34;4992823;28;20129;-70
2021/12/27 03:08:48;;;;;;;21.48;10.93;;;6.70;99.90;;;5.73;100.00;96345.16;4988656;28;20411;-70
2021/12/27 03:11:17;;;;;;;20.73;9.90;;;6.70;99.90;;;5.62;100.00;96334.50;4990793;28;20542;-70
2021/12/27 03:13:50;;;;;;;21.17;10.40;;;6.70;99.90;;;5.73;100.00;96342.59;4989430;28;20127;-70
2021/12/27 03:16:24;;;;;;;21.77;11.55;;;6.70;99.90;;;5.68;100.00;96339.38;4988031;28;20091;-70
2021/12/27 03:18:54;;;;;;;24.25;11.32;;;6.70;99.90;;;5.71;100.00;96331.53;4991981;28;20042;-70
2021/12/27 03:21:22;;;;;;;20.95;10.93;;;6.70;99.90;;;5.72;100.00;96340.06;4990674;28;20360;-70
2021/12/27 03:23:50;;;;;;;23.90;12.75;;;6.80;99.90;;;5.82;100.00;96343.94;4989504;28;20172;-70
2021/12/27 03:26:27;;;;;;;23.38;11.32;;;6.80;99.90;;;5.81;100.00;96340.50;4988441;28;20116;-70
2021/12/27 03:28:55;;;;;;;19.30;8.50;;;6.90;99.90;;;5.84;100.00;96331.84;4988833;28;20042;-70
2021/12/27 03:31:23;;;;;;;14.63;6.97;;;6.90;99.90;;;5.79;100.00;96326.88;4987087;28;20046;-70
2021/12/27 03:33:51;;;;;;;11.57;6.15;;;6.90;99.90;;;5.84;100.00;96326.69;4990022;28;20046;-70
2021/12/27 03:36:23;;;;;;;9.98;5.65;;;6.80;99.90;;;5.93;100.00;96323.72;4985208;28;20050;-70
2021/12/27 03:38:52;;;;;;;10.13;6.47;;;6.90;99.90;;;5.95;100.00;96323.66;4971293;28;20054;-70
2021/12/27 03:41:25;;;;;;;10.00;5.85;;;6.90;99.90;;;5.96;100.00;96326.16;4988169;28;20081;-70
2021/12/27 03:43:52;;;;;;;10.85;6.68;;;7.00;99.90;;;5.88;100.00;96333.34;4987869;28;20050;-70
2021/12/27 03:46:20;;;;;;;10.30;5.78;;;7.00;99.90;;;5.88;100.00;96333.34;4985948;28;20042;-69
2021/12/27 03:48:50;;;;;;;10.05;6.18;;;7.00;99.90;;;5.93;100.00;96323.72;4987715;28;20046;-70
2021/12/27 03:51:18;;;;;;;10.35;5.57;;;7.00;99.90;;;5.93;100.00;96328.84;4989760;28;20077;-70
2021/12/27 03:53:45;;;;;;;10.35;5.80;;;7.00;99.90;;;5.97;100.00;96330.41;4988732;28;20066;-70
2021/12/27 03:56:23;;;;;;;7.90;4.53;;;7.00;99.90;;;6.03;100.00;96321.59;4987217;28;20057;-70
2021/12/27 03:59:19;;;;;;;8.27;4.78;;;7.00;99.90;;;6.03;100.00;96321.59;4989040;28;20474;-70
2021/12/27 04:01:47;;;;;;;9.18;3.92;;;7.00;99.90;;;6.04;100.00;96316.38;4981683;28;20055;-70
2021/12/27 04:04:14;;;;;;;7.95;4.90;;;7.00;99.90;;;6.05;100.00;96312.88;4989067;28;20066;-70
2021/12/27 04:06:42;;;;;;;8.00;4.15;;;7.00;99.90;;;6.08;100.00;96306.75;4989817;28;20431;-70
2021/12/27 04:09:09;;;;;;;7.30;4.20;;;7.00;99.90;;;6.13;100.00;96316.84;4992779;28;20526;-70
2021/12/27 04:11:36;;;;;;;8.98;5.03;;;7.00;99.90;;;6.02;100.00;96317.31;4989495;28;20042;-70
2021/12/27 04:14:03;;;;;;;128.82;10.63;;;7.10;99.90;;;5.46;100.00;96313.72;4996011;28;20077;-70
2021/12/27 04:16:31;;;;;;;26.25;5.68;;;6.80;99.90;;;5.00;100.00;96319.03;4986426;28;20046;-70
2021/12/27 04:18:59;;;;;;;18.65;5.38;;;6.40;99.90;;;4.68;100.00;96316.94;4986053;28;20058;-70
2021/12/27 04:21:26;;;;;;;12.80;5.38;;;6.00;99.90;;;4.52;100.00;96309.81;4984368;28;20506;-70
2021/12/27 04:23:53;;;;;;;27.48;5.88;;;5.80;99.90;;;4.45;100.00;96308.38;4988819;28;20109;-70
2021/12/27 04:26:22;;;;;;;20.98;5.43;;;5.70;99.90;;;4.56;100.00;96308.81;4983413;28;20042;-70
2021/12/27 04:28:51;;;;;;;32.65;4.75;;;5.70;99.90;;;4.39;100.00;96306.03;4988476;28;20049;-70
2021/12/27 04:31:18;;;;;;;6.28;2.22;;;5.50;99.90;;;4.25;100.00;96295.47;4988592;28;20043;-70
2021/12/27 04:33:45;;;;;;;18.08;4.63;;;5.40;99.90;;;4.11;100.00;96298.56;4986464;28;20093;-70
2021/12/27 04:36:12;;;;;;;6.53;2.25;;;5.30;99.90;;;4.15;100.00;96298.38;4988328;28;20062;-69
2021/12/27 04:38:44;;;;;;;16.77;3.88;;;5.30;99.90;;;3.95;100.00;96304.25;4988772;28;20576;-70
2021/12/27 04:41:23;;;;;;;5.97;2.85;;;5.20;99.90;;;4.02;100.00;96304.88;4989366;28;20057;-70
2021/12/27 04:43:51;;;;;;;4.22;2.03;;;5.10;99.90;;;4.04;100.00;96303.06;4986730;28;20085;-70
2021/12/27 04:46:18;;;;;;;6.63;2.65;;;5.10;99.90;;;4.02;100.00;96306.59;4988817;28;20046;-70
2021/12/27 04:48:49;;;;;;;4.88;2.50;;;5.00;99.90;;;4.13;100.00;96294.19;4987249;28;20054;-70
2021/12/27 04:51:16;;;;;;;5.35;2.50;;;5.10;99.90;;;4.17;100.00;96295.72;4992139;28;20196;-70
2021/12/27 04:53:43;;;;;;;4.25;1.92;;;5.10;99.90;;;4.12;100.00;96298.47;4986974;28;20462;-70
2021/12/27 04:56:10;;;;;;;4.18;1.70;;;5.10;99.90;;;4.15;100.00;96295.81;4984695;28;20074;-69
2021/12/27 04:58:38;;;;;;;13.20;6.65;;;5.10;99.90;;;4.39;100.00;96293.19;4984829;28;20472;-70
2021/12/27 05:01:06;;;;;;;10.85;5.60;;;5.10;99.90;;;4.65;100.00;96293.91;4987875;28;20048;-70
2021/12/27 05:03:34;;;;;;;11.40;6.22;;;5.40;99.90;;;5.03;100.00;96298.34;4982376;28;20138;-70
2021/12/27 05:06:01;;;;;;;10.32;5.97;;;5.70;99.90;;;5.32;100.00;96287.75;4991181;28;20498;-70
2021/12/27 05:08:29;;;;;;;12.18;6.50;;;6.00;99.90;;;5.46;100.00;96287.97;4985699;28;20509;-70
2021/12/27 05:10:56;;;;;;;12.80;7.45;;;6.30;99.90;;;5.73;100.00;96282.56;4988478;28;20188;-70
2021/12/27 05:13:24;;;;;;;13.00;7.88;;;6.50;99.90;;;5.70;100.00;96285.25;4987276;28;20498;-70
2021/12/27 05:15:51;;;;;;;17.85;8.32;;;6.60;99.90;;;5.73;100.00;96285.94;4988807;28;20046;-70
2021/12/27 05:18:19;;;;;;;14.57;8.20;;;6.70;99.90;;;5.86;100.00;96286.22;4985417;28;20422;-70
2021/12/27 05:20:46;;;;;;;14.90;7.75;;;6.80;99.90;;;5.95;100.00;96277.28;4983314;28;20116;-70
2021/12/27 05:23:13;;;;;;;15.27;8.98;;;6.90;99.90;;;5.97;100.00;96278.88;4989937;28;20058;-70
2021/12/27 05:25:41;;;;;;;19.38;9.57;;;6.90;99.90;;;5.99;100.00;96276.25;4988553;28;20094;-70
2021/12/27 05:28:09;;;;;;;18.58;8.57;;;7.00;99.90;;;6.03;100.00;96255.44;4987011;28;20053;-70
2021/12/27 05:30:39;;;;;;;18.20;9.00;;;7.00;99.90;;;6.05;100.00;96263.09;4987578;28;20042;-70
2021/12/27 05:33:08;;;;;;;18.98;9.27;;;7.10;99.90;;;5.96;100.00;96266.94;4983253;28;20125;-70
2021/12/27 05:35:35;;;;;;;16.58;8.93;;;7.10;99.90;;;6.06;100.00;96262.19;4987163;28;20394;-70
2021/12/27 05:38:03;;;;;;;18.85;8.55;;;7.10;99.90;;;6.15;100.00;96256.63;4991062;28;20104;-70
2021/12/27 05:40:34;;;;;;;18.58;10.13;;;7.10;99.90;;;6.14;100.00;96254.13;4987360;28;20056;-70
2021/12/27 05:43:01;;;;;;;18.67;9.23;;;7.20;99.90;;;6.11;100.00;96259.41;4986788;28;20054;-70
2021/12/27 05:45:29;;;;;;;20.42;9.68;;;7.20;99.90;;;6.21;100.00;96260.66;4983930;28;20145;-70
2021/12/27 05:47:57;;;;;;;18.90;8.82;;;7.20;99.90;;;6.22;100.00;96250.25;4983197;28;20489;-70
2021/12/27 05:50:25;;;;;;;10.07;6.30;;;7.30;99.90;;;6.23;100.00;96246.81;4987796;28;20072;-70
2021/12/27 05:52:56;;;;;;;11.18;7.32;;;7.30;99.90;;;6.25;100.00;96242.41;4972762;28;20045;-70
2021/12/27 05:55:26;;;;;;;14.95;8.15;;;7.30;99.90;;;6.22;100.00;96252.00;4980485;28;20531;-70
2021/12/27 05:57:54;;;;;;;11.98;7.68;;;7.30;99.90;;;6.25;100.00;96252.72;4985347;28;20145;-70
2021/12/27 06:00:23;;;;;;;13.73;7.22;;;7.30;99.90;;;6.21;100.00;96252.94;4987814;28;20598;-70
2021/12/27 06:02:53;;;;;;;9.85;6.00;;;7.30;99.90;;;6.28;100.00;96249.16;4984678;28;20120;-70
2021/12/27 06:05:23;;;;;;;9.63;5.25;;;7.30;99.90;;;6.33;100.00;96238.63;4987356;28;20136;-70
2021/12/27 06:07:56;;;;;;;11.40;6.50;;;7.30;99.90;;;6.32;100.00;96239.53;4984694;28;20074;-70
2021/12/27 06:10:24;;;;;;;11.55;6.15;;;7.30;99.90;;;6.33;100.00;96238.63;4984809;28;20085;-70
2021/12/27 06:12:51;;;;;;;14.18;8.23;;;7.30;99.90;;;6.36;100.00;96241.06;4985128;28;20038;-70
2021/12/27 06:15:19;;;;;;;12.48;6.72;;;7.40;99.90;;;6.37;100.00;96237.59;4984816;28;20531;-70
2021/12/27 06:17:46;;;;;;;12.10;6.93;;;7.40;99.90;;;6.33;100.00;96234.31;4984216;28;20124;-70
2021/12/27 06:20:16;;;;;;;10.05;6.75;;;7.40;99.90;;;6.38;100.00;96231.50;4984633;28;20086;-70
2021/12/27 06:22:53;;;;;;;11.60;6.00;;;7.30;99.90;;;6.28;100.00;96224.22;4985171;28;20435;-70
2021/12/27 06:25:20;;;;;;;12.52;7.00;;;7.30;99.90;;;6.36;100.00;96225.59;4983459;28;20046;-70
2021/12/27 06:27:48;;;;;;;9.23;5.82;;;7.40;99.90;;;6.38;100.00;96227.19;4985284;28;20042;-70
2021/12/27 06:30:16;;;;;;;12.43;6.78;;;7.40;99.90;;;6.40;100.00;96232.28;4983527;28;20046;-70
2021/12/27 06:32:44;;;;;;;7.40;5.05;;;7.40;99.90;;;6.43;100.00;96224.41;4985787;28;20047;-71
2021/12/27 06:35:15;;;;;;;14.95;8.02;;;7.40;99.90;;;6.35;100.00;96239.41;4987607;28;20046;-70
2021/12/27 06:37:46;;;;;;;11.70;5.70;;;7.40;99.90;;;6.32;100.00;96230.06;4982759;28;20058;-70
2021/12/27 06:40:15;;;;;;;11.63;6.20;;;7.40;99.90;;;6.39;100.00;96239.19;4987186;28;20078;-70
2021/12/27 06:42:43;;;;;;;11.38;5.22;;;7.40;99.90;;;6.37;100.00;96229.84;4986322;28;20069;-70
2021/12/27 06:45:11;;;;;;;8.70;5.45;;;7.40;99.90;;;6.30;100.00;96233.63;4983467;28;20050;-70
2021/12/27 06:47:40;;;;;;;8.77;5.32;;;7.40;99.90;;;6.38;100.00;96229.78;4988188;28;20046;-70
2021/12/27 06:50:09;;;;;;;9.68;5.20;;;7.40;99.90;;;6.39;100.00;96235.78;4987029;28;20047;-70
2021/12/27 06:52:37;;;;;;;9.07;4.95;;;7.40;99.90;;;6.46;100.00;96237.16;4983929;28;20208;-70
2021/12/27 06:55:06;;;;;;;9.07;5.63;;;7.40;99.90;;;6.46;100.00;96232.81;4985359;28;20394;-70
2021/12/27 06:57:34;;;;;;;8.98;4.93;;;7.40;99.90;;;6.44;100.00;96232.06;4990302;28;20050;-70
2021/12/27 07:00:06;;;;;;;8.52;5.13;;;7.40;99.90;;;6.43;100.00;96232.13;4984145;28;20054;-70
2021/12/27 07:02:34;;;;;;;11.05;4.88;;;7.40;99.90;;;6.42;100.00;96228.72;4987720;28;20444;-70
2021/12/27 07:05:01;;;;;;;10.15;5.20;;;7.40;99.90;;;6.46;100.00;96230.25;4990502;28;20451;-70
2021/12/27 07:07:29;;;;;;;9.38;5.25;;;7.40;99.90;;;6.48;100.00;96225.03;4988125;28;20133;-70
2021/12/27 07:09:56;;;;;;;7.20;4.05;;;7.40;99.90;;;6.44;100.00;96226.91;4990613;28;20046;-70
2021/12/27 07:12:24;;;;;;;5.63;3.92;;;7.40;99.90;;;6.44;100.00;96228.66;4988549;28;20038;-70
2021/12/27 07:14:53;;;;;;;7.10;3.97;;;7.40;99.90;;;6.39;100.00;96230.63;4988961;28;20370;-70
2021/12/27 07:17:20;;;;;;;6.45;3.83;;;7.40;99.90;;;6.44;100.00;96232.06;4987856;28;20451;-70
2021/12/27 07:19:48;;;;;;;9.63;4.72;;;7.40;99.90;;;6.43;100.00;96232.97;4987481;28;20132;-70
2021/12/27 07:22:16;;;;;;;7.18;4.40;;;7.50;99.90;;;6.47;100.00;96236.22;4988670;28;20076;-70
2021/12/27 07:24:43;;;;;;;7.70;4.20;;;7.40;99.90;;;6.46;100.00;96235.41;4989757;28;20042;-70
2021/12/27 07:27:11;;;;;;;7.15;3.97;;;7.40;99.90;;;6.43;100.00;96245.88;4986043;28;20050;-70
2021/12/27 07:29:39;;;;;;;7.07;3.78;;;7.50;99.90;;;6.49;100.00;96234.41;4987042;28;20148;-70
2021/12/27 07:32:07;;;;;;;8.65;4.63;;;7.40;99.90;;;6.46;100.00;96235.41;4988474;28;20101;-70
2021/12/27 07:34:39;;;;;;;10.02;5.07;;;7.40;99.90;;;6.43;100.00;96234.69;4989332;28;20127;-70
2021/12/27 07:37:07;;;;;;;6.70;3.60;;;7.50;99.90;;;6.42;100.00;96235.63;4985062;28;20499;-70
2021/12/27 07:39:34;;;;;;;9.88;3.92;;;7.50;99.90;;;6.41;100.00;96228.78;4992715;28;20510;-70
2021/12/27 07:42:03;;;;;;;9.43;4.22;;;7.40;99.90;;;6.40;100.00;96238.25;4984678;28;20054;-70
2021/12/27 07:44:30;;;;;;;7.90;4.05;;;7.50;99.90;;;6.38;100.00;96237.50;4990918;28;20092;-70
2021/12/27 07:46:58;;;;;;;8.77;3.95;;;7.50;99.90;;;6.49;100.00;96224.09;4985681;28;20047;-70
2021/12/27 07:49:25;;;;;;;8.30;4.13;;;7.50;99.90;;;6.45;100.00;96228.59;4986644;28;20700;-70
2021/12/27 07:51:53;;;;;;;7.57;3.42;;;7.50;99.90;;;6.48;100.00;96228.44;4991764;28;20176;-70
2021/12/27 07:54:20;;;;;;;7.38;3.83;;;7.50;99.90;;;6.49;100.00;96221.53;4990301;28;20061;-70
2021/12/27 07:56:48;;;;;;;6.15;3.40;;;7.50;99.90;;;6.51;100.00;96213.72;4988388;28;20046;-70
2021/12/27 07:59:18;;;;;;;6.65;3.60;;;7.50;99.90;;;6.58;100.00;96215.94;4990166;28;20050;-70
2021/12/27 08:01:46;;;;;;;9.52;3.85;;;7.50;99.90;;;6.48;100.00;96207.81;4989504;28;20077;-70
2021/12/27 08:04:15;;;;;;;7.00;3.83;;;7.50;99.90;;;6.50;100.00;96220.63;4987688;28;20050;-70
2021/12/27 08:06:41;;;;;;;6.05;3.90;;;7.50;99.90;;;6.55;100.00;96212.69;4986300;28;20038;-70
2021/12/27 08:09:10;;;;;;;8.27;3.88;;;7.50;99.90;;;6.52;100.00;96215.38;4987245;28;20115;-70
2021/12/27 08:11:37;;;;;;;6.78;4.22;;;7.50;99.90;;;6.53;100.00;96217.91;4988931;28;20046;-70
2021/12/27 08:14:07;;;;;;;6.40;3.75;;;7.50;99.90;;;6.47;100.00;96213.84;4986539;28;20042;-70
2021/12/27 08:16:34;;;;;;;9.63;3.95;;;7.50;99.90;;;6.49;100.00;96216.38;4987625;28;20137;-70
2021/12/27 08:19:01;;;;;;;9.32;4.20;;;7.50;99.90;;;6.44;100.00;96219.16;4987017;28;20054;-70
2021/12/27 08:21:33;;;;;;;6.95;3.58;;;7.50;99.90;;;6.50;100.00;96215.47;4988765;28;20563;-70
2021/12/27 08:24:01;;;;;;;4.93;2.97;;;7.50;99.90;;;6.49;100.00;96224.94;4985676;28;20057;-70
2021/12/27 08:26:28;;;;;;;8.60;3.80;;;7.50;99.90;;;6.50;100.00;96225.78;4987458;28;20057;-70
2021/12/27 08:28:56;;;;;;;6.28;3.03;;;7.50;99.90;;;6.52;100.00;96221.38;4982220;28;20132;-70
2021/12/27 08:31:24;;;;;;;8.68;3.00;;;7.50;99.90;;;6.47;100.00;96215.63;4986207;28;20121;-70
2021/12/27 08:33:51;;;;;;;6.55;3.67;;;7.60;99.90;;;6.54;100.00;96218.72;4991956;28;20116;-70
2021/12/27 08:36:19;;;;;;;5.30;2.58;;;7.60;99.90;;;6.55;100.00;96220.41;4991767;28;20390;-70
2021/12/27 08:38:49;;;;;;;5.65;3.25;;;7.60;99.90;;;6.51;100.00;96217.13;4984567;28;20410;-70
2021/12/27 08:41:19;;;;;;;6.28;3.33;;;7.60;99.90;;;6.59;100.00;96216.75;4965766;28;20066;-70
2021/12/27 08:43:46;;;;;;;5.40;2.65;;;7.60;99.90;;;6.59;100.00;96221.91;4983316;28;20557;-70
2021/12/27 08:46:14;;;;;;;7.78;3.92;;;7.60;99.90;;;6.60;100.00;96223.59;4980514;28;20054;-70
2021/12/27 08:48:43;;;;;;;5.68;3.47;;;7.60;99.90;;;6.52;100.00;96220.53;4988743;28;20442;-70
2021/12/27 08:51:10;;;;;;;7.50;3.53;;;7.60;99.90;;;6.64;100.00;96215.63;4985173;28;20078;-70
2021/12/27 08:53:38;;;;;;;4.30;2.45;;;7.60;99.90;;;6.67;100.00;96206.91;4983238;28;20051;-70
2021/12/27 08:56:06;;;;;;;3.95;2.38;;;7.60;99.90;;;6.66;100.00;96208.66;4982096;28;20046;-70
2021/12/27 08:58:35;;;;;;;4.53;2.00;;;7.60;99.90;;;6.69;100.00;96203.34;4981481;28;20062;-70
2021/12/27 09:01:03;;;;;;;3.45;2.15;;;7.70;99.90;;;6.65;100.00;96198.41;4979362;28;20058;-70
2021/12/27 09:03:31;;;;;;;5.55;2.00;;;7.70;99.90;;;6.89;100.00;96196.38;4965158;28;20479;-70
2021/12/27 09:05:58;;;;;;;5.90;2.55;;;7.80;99.90;;;6.95;100.00;96192.66;4982839;28;20086;-70
2021/12/27 09:08:25;;;;;;;5.32;2.92;;;7.90;99.90;;;6.96;100.00;96191.75;4986154;28;20042;-70
2021/12/27 09:10:57;;;;;;;5.25;2.58;;;8.00;99.90;;;6.99;100.00;96200.16;4984292;28;20372;-70
2021/12/27 09:13:30;;;;;;;6.95;2.50;;;8.00;99.90;;;7.01;100.00;96189.78;4979778;28;20150;-70
2021/12/27 09:16:01;;;;;;;;;;;8.10;99.90;;;6.87;100.00;96190.47;4982522;28;20505;-70
2021/12/27 09:18:33;;;;;;;4.63;2.22;;;8.00;99.90;;;6.95;100.00;96178.00;4999237;28;20112;-70
2021/12/27 09:21:01;;;;;;;5.20;2.00;;;8.00;99.90;;;6.97;100.00;96191.66;4982439;28;20138;-70
2021/12/27 09:23:29;;;;;;;3.40;1.98;;;8.00;99.90;;;7.05;100.00;96194.69;4979701;28;20412;-70
2021/12/27 09:25:56;;;;;;;4.22;1.77;;;8.10;99.90;;;7.20;100.00;96193.06;4985289;28;20165;-70
2021/12/27 09:28:23;;;;;;;3.75;2.03;;;8.20;99.90;;;7.28;100.00;96193.53;4975217;28;20392;-70
2021/12/27 09:30:50;;;;;;;3.83;2.00;;;;;;;7.40;100.00;96180.88;4982655;28;20038;-70
2021/12/27 09:33:17;;;;;;;6.82;2.30;;;8.30;99.90;;;7.44;100.00;96174.66;4981713;28;20542;-70
2021/12/27 09:35:45;;;;;;;4.10;2.80;;;8.30;99.90;;;7.40;100.00;96175.72;4984014;28;20046;-70
2021/12/27 09:38:12;;;;;;;3.03;1.98;;;8.40;99.90;;;7.56;100.00;96178.34;4991728;28;20142;-70
2021/12/27 09:40:39;;;;;;;4.28;2.40;;;8.50;99.90;;;7.41;100.00;96167.06;4982542;28;20133;-70
2021/12/27 09:43:08;;;;;;;5.55;2.40;;;8.60;99.90;;;7.52;100.00;96167.31;4981015;28;20075;-70
2021/12/27 09:45:36;;;;;;;10.77;5.82;;;8.60;99.90;;;7.60;100.00;96161.78;4981003;28;20050;-70
2021/12/27 09:48:04;;;;;;;7.05;2.95;;;8.70;99.90;;;7.68;100.00;96157.84;4981236;28;20078;-70
2021/12/27 09:50:40;;;;;;;3.10;1.80;;;8.70;99.90;;;7.49;100.00;96152.84;4985631;28;20058;-70
2021/12/27 09:53:09;;;;;;;5.95;2.53;;;8.70;99.90;;;7.39;100.00;96150.81;4985466;28;20136;-70
2021/12/27 09:55:52;;;;;;;5.55;2.50;;;8.70;99.90;;;7.37;100.00;96160.38;4995428;28;20042;-70
2021/12/27 09:58:20;;;;;;;6.15;2.50;;;8.60;99.90;;;7.40;100.00;96145.56;4978738;28;20049;-70
2021/12/27 10:00:47;;;;;;;4.32;2.40;;;8.60;99.90;;;7.43;100.00;96149.75;4985030;28;20111;-70
2021/12/27 10:03:15;;;;;;;7.65;3.30;;;8.60;99.90;;;7.57;100.00;96151.59;4979977;28;20460;-70
2021/12/27 10:05:45;;;;;;;7.13;2.20;;;8.60;99.90;;;7.51;100.00;96147.59;4982188;28;20131;-70
2021/12/27 10:08:16;;;;;;;3.67;1.95;;;8.60;99.90;;;7.58;100.00;96140.38;4983988;28;20047;-70
2021/12/27 10:10:47;;;;;;;4.55;2.05;;;8.60;99.90;;;7.50;100.00;96144.19;4986732;28;20419;-70
2021/12/27 10:13:14;;;;;;;3.95;2.05;;;8.70;99.90;;;7.68;100.00;96150.09;4981855;28;20047;-70
2021/12/27 10:15:45;;;;;;;4.63;2.53;;;8.70;99.90;;;7.81;100.00;96129.59;4982896;28;20417;-69
2021/12/27 10:18:16;;;;;;;4.00;2.10;;;8.80;99.90;;;7.84;100.00;96126.84;4988005;28;20059;-68
2021/12/27 10:20:45;;;;;;;5.63;2.47;;;8.90;99.90;;;7.77;100.00;96132.44;4989299;28;20054;-70
2021/12/27 10:23:13;;;;;;;5.63;2.38;;;9.00;99.90;;;7.82;100.00;96125.25;4987819;28;20061;-70
2021/12/27 10:25:41;;;;;;;3.45;2.13;;;9.00;99.90;;;7.81;100.00;96119.28;4990220;28;20438;-70
2021/12/27 10:28:08;;;;;;;4.13;1.90;;;9.00;99.90;;;7.87;100.00;96128.47;4983587;28;20054;-70
2021/12/27 10:30:45;;;;;;;3.25;1.50;;;9.10;99.90;;;7.89;100.00;96118.84;4985974;28;20375;-70